Dousman, WI (53118)

6:24 AM CDT on July 28, 2016 (GMT -0500)
Opengate | | Change Station

Elev 892 ft 43.02 °N, 88.45 °W | Updated 25 seconds ago

Mostly Cloudy
Mostly Cloudy
70.5 °F
Feels Like 73 °F
N
0.0
Wind Variable Wind from ENE
Gusts 0.0 mph

Today
High -- | Low -- °F
--% Chance of Precip.
Yesterday
High -- | Low -- °F
Precip. -- in
Pressure 29.95 in
Visibility 10.0 miles
Clouds Scattered Clouds 700 ft
Mostly Cloudy 3000 ft
Heat Index 73 °F
Dew Point 62 °F
Humidity 74%
Rainfall 0.00 in
Snow Depth Not available.
5:41 AM 8:18 PM
Waning Crescent, 33% visible
METAR KUES 281045Z 10008KT 10SM SCT007 BKN030 18/18 A2995
Pressure 29.95 in
Visibility 10.0 miles
Clouds Scattered Clouds 700 ft
Mostly Cloudy 3000 ft
Heat Index 73 °F
Dew Point 62 °F
Humidity 74%
Rainfall 0.00 in
Snow Depth Not available.
5:41 AM 8:18 PM
Waning Crescent, 33% visible
METAR KUES 281045Z 10008KT 10SM SCT007 BKN030 18/18 A2995

10-Day Weather Forecast

Almanac

Astronomy

Jul. 28, 2016 Rise Set
Actual Time
Civil Twilight
Nautical Twilight
Astronomical Twilight
Moon
Length of Visible Light
Length of Day
Tomorrow will be .
, % of the Moon is Illuminated

Today's Extremes

State Highs State Lows

Community

WunderPhotos

Upload Photos

1,928,083 photos uploaded!

WunderBlog® & News

Nearby

Air Quality

  Air Quality AQ Index Pollutant
Not available.

Snow Depth

Station Depth Elevation

Earthquake Activity

City Distance Mag. Time & Date
Minimum magnitude displayed is 2.5.

Coastal Water Temperatures

Place Temperature

Stations

Nearby Weather Stations

Station Location Temp. Windchill Dew Point Humidity Wind Precip. Elev Updated Type
                   

Watches & Warnings

There are currently no watches in effect.